createdAt,value
2023-11-23T00:00:04.908Z,9.20
2023-11-23T00:02:31.368Z,9.77
2023-11-23T00:04:57.833Z,9.40
2023-11-23T00:07:24.762Z,8.40
2023-11-23T00:09:51.222Z,9.00
2023-11-23T00:12:19.136Z,8.63
2023-11-23T00:14:45.709Z,7.93
2023-11-23T00:17:12.245Z,9.27
2023-11-23T00:19:38.851Z,7.80
2023-11-23T00:22:05.775Z,8.63
2023-11-23T00:24:32.222Z,8.00
2023-11-23T00:26:59.245Z,8.35
2023-11-23T00:29:25.708Z,8.18
2023-11-23T00:31:52.114Z,8.65
2023-11-23T00:34:18.667Z,8.90
2023-11-23T00:36:45.679Z,7.97
2023-11-23T00:39:12.571Z,8.30
2023-11-23T00:41:39.315Z,7.60
2023-11-23T00:44:06.726Z,7.20
2023-11-23T00:46:33.492Z,6.53
2023-11-23T00:49:00.871Z,6.75
2023-11-23T00:51:27.509Z,7.63
2023-11-23T00:53:54.114Z,7.43
2023-11-23T00:56:20.532Z,7.55
2023-11-23T00:58:46.901Z,6.72
2023-11-23T01:01:16.550Z,6.82
2023-11-23T01:03:43.182Z,7.30
2023-11-23T01:06:09.705Z,6.78
2023-11-23T01:08:36.076Z,6.20
2023-11-23T01:11:03.425Z,6.50
2023-11-23T01:13:32.733Z,6.55
2023-11-23T01:15:59.257Z,5.78
2023-11-23T01:18:25.794Z,5.47
2023-11-23T01:20:52.392Z,6.82
2023-11-23T01:23:18.773Z,6.57
2023-11-23T01:25:46.707Z,5.72
2023-11-23T01:28:13.354Z,5.88
2023-11-23T01:30:39.749Z,6.28
2023-11-23T01:33:06.300Z,6.35
2023-11-23T01:35:32.763Z,5.57
2023-11-23T01:37:59.128Z,7.18
2023-11-23T01:40:25.560Z,6.15
2023-11-23T01:42:51.968Z,6.07
2023-11-23T01:45:18.548Z,5.68
2023-11-23T01:47:45.459Z,5.20
2023-11-23T01:50:14.668Z,5.88
2023-11-23T01:52:42.206Z,4.22
2023-11-23T01:55:09.268Z,6.30
2023-11-23T01:57:37.515Z,5.38
2023-11-23T02:00:04.367Z,5.07
2023-11-23T02:02:30.864Z,5.07
2023-11-23T02:05:04.870Z,4.82
2023-11-23T02:07:31.322Z,5.35
2023-11-23T02:09:57.683Z,4.90
2023-11-23T02:12:24.146Z,3.85
2023-11-23T02:14:54.634Z,4.95
2023-11-23T02:17:21.598Z,4.80
2023-11-23T02:19:48.677Z,4.30
2023-11-23T02:22:15.769Z,4.78
2023-11-23T02:24:46.211Z,4.90
2023-11-23T02:27:13.182Z,5.47
2023-11-23T02:29:40.452Z,4.75
2023-11-23T02:32:07.287Z,4.60
2023-11-23T02:34:37.298Z,4.30
2023-11-23T02:37:04.007Z,3.85
2023-11-23T02:39:30.810Z,3.90
2023-11-23T02:41:57.790Z,4.03
2023-11-23T02:44:24.266Z,5.07
2023-11-23T02:46:50.759Z,5.47
2023-11-23T02:49:17.606Z,4.22
2023-11-23T02:51:44.049Z,3.83
2023-11-23T02:54:10.452Z,4.30
2023-11-23T02:56:37.381Z,4.32
2023-11-23T02:59:08.899Z,4.60
2023-11-23T03:04:01.850Z,4.53
2023-11-23T03:06:28.352Z,4.65
2023-11-23T03:08:54.789Z,3.78
2023-11-23T03:11:21.827Z,4.65
2023-11-23T03:13:48.957Z,4.18
2023-11-23T03:16:15.456Z,4.80
2023-11-23T03:18:41.884Z,3.67
2023-11-23T03:21:10.303Z,3.85
2023-11-23T03:23:36.919Z,3.78
2023-11-23T03:26:03.591Z,3.83
2023-11-23T03:28:30.353Z,4.13
2023-11-23T03:30:56.708Z,4.15
2023-11-23T03:33:23.243Z,4.10
2023-11-23T03:35:51.287Z,3.92
2023-11-23T03:38:18.095Z,3.75
2023-11-23T03:40:44.527Z,5.55
2023-11-23T03:43:11.143Z,4.30
2023-11-23T03:45:37.530Z,4.18
2023-11-23T03:48:04.817Z,4.35
2023-11-23T03:50:31.666Z,5.15
2023-11-23T03:52:58.054Z,4.00
2023-11-23T03:55:24.469Z,5.00
2023-11-23T03:57:51.095Z,4.60
2023-11-23T04:00:17.655Z,3.83
2023-11-23T04:02:44.876Z,4.45
2023-11-23T04:05:11.469Z,4.25
2023-11-23T04:07:37.853Z,4.93
2023-11-23T04:10:04.868Z,4.93
2023-11-23T04:12:31.311Z,4.15
2023-11-23T04:14:57.750Z,4.10
2023-11-23T04:17:24.154Z,4.82
2023-11-23T04:19:50.572Z,5.10
2023-11-23T04:22:17.626Z,4.45
2023-11-23T04:24:44.073Z,4.50
2023-11-23T04:27:10.671Z,4.57
2023-11-23T04:29:37.062Z,5.03
2023-11-23T04:32:05.317Z,4.72
2023-11-23T04:34:31.723Z,5.07
2023-11-23T04:36:58.141Z,6.90
2023-11-23T04:39:24.627Z,4.30
2023-11-23T04:41:51.122Z,4.57
2023-11-23T04:44:17.529Z,5.75
2023-11-23T04:46:44.061Z,5.45
2023-11-23T04:49:10.492Z,5.63
2023-11-23T04:51:36.884Z,4.82
2023-11-23T04:54:03.477Z,5.20
2023-11-23T04:56:30.024Z,5.72
2023-11-23T04:58:56.387Z,5.82
2023-11-23T05:01:22.803Z,4.97
2023-11-23T05:03:49.841Z,5.55
2023-11-23T05:06:16.512Z,5.30
2023-11-23T05:08:43.152Z,5.47
2023-11-23T05:11:09.603Z,4.95
2023-11-23T05:13:36.027Z,5.55
2023-11-23T05:16:02.482Z,5.90
2023-11-23T05:18:29.320Z,6.15
2023-11-23T05:20:55.874Z,5.53
2023-11-23T05:23:22.269Z,6.32
2023-11-23T05:25:48.697Z,5.57
2023-11-23T05:28:15.399Z,6.38
2023-11-23T05:30:42.273Z,6.65
2023-11-23T05:33:09.498Z,6.45
2023-11-23T05:35:35.881Z,6.25
2023-11-23T05:38:02.572Z,6.38
2023-11-23T05:40:29.021Z,6.88
2023-11-23T05:43:03.147Z,6.00
2023-11-23T05:45:33.292Z,6.82
2023-11-23T05:47:59.838Z,5.90
2023-11-23T05:50:26.292Z,7.05
2023-11-23T05:52:52.739Z,8.07
2023-11-23T05:55:19.192Z,5.78
2023-11-23T05:57:45.573Z,6.53
2023-11-23T06:00:12.340Z,7.43
2023-11-23T06:02:40.017Z,6.13
2023-11-23T06:05:06.666Z,6.97
2023-11-23T06:07:33.091Z,6.88
2023-11-23T06:10:02.235Z,6.30
2023-11-23T06:12:28.775Z,6.95
2023-11-23T06:14:55.264Z,6.38
2023-11-23T06:17:22.700Z,6.35
2023-11-23T06:19:49.196Z,6.78
2023-11-23T06:22:15.632Z,6.53
2023-11-23T06:24:42.080Z,6.72
2023-11-23T06:27:10.302Z,6.90
2023-11-23T06:29:36.845Z,6.70
2023-11-23T06:32:06.577Z,6.97
2023-11-23T06:34:33.559Z,7.25
2023-11-23T06:37:00.951Z,6.55
2023-11-23T06:39:27.878Z,8.10
2023-11-23T06:41:54.818Z,7.57
2023-11-23T06:44:21.730Z,6.78
2023-11-23T06:46:48.164Z,7.80
2023-11-23T06:49:14.584Z,7.57
2023-11-23T06:51:41.164Z,8.13
2023-11-23T06:54:07.648Z,7.70
2023-11-23T06:56:34.019Z,7.60
2023-11-23T06:59:00.743Z,8.95
2023-11-23T07:01:27.249Z,7.90
2023-11-23T07:03:53.762Z,7.70
2023-11-23T07:06:25.021Z,8.60
2023-11-23T07:08:51.746Z,7.63
2023-11-23T07:11:19.637Z,8.57
2023-11-23T07:13:49.688Z,9.25
2023-11-23T07:16:16.236Z,9.07
2023-11-23T07:18:43.059Z,7.78
2023-11-23T07:21:09.684Z,7.63
2023-11-23T07:23:39.081Z,7.68
2023-11-23T07:26:05.727Z,8.05
2023-11-23T07:28:32.921Z,8.90
2023-11-23T07:30:59.400Z,9.05
2023-11-23T07:33:30.470Z,8.50
2023-11-23T07:35:57.172Z,8.15
2023-11-23T07:38:23.821Z,8.30
2023-11-23T07:40:50.301Z,8.45
2023-11-23T07:43:16.903Z,9.52
2023-11-23T07:45:43.546Z,7.85
2023-11-23T07:48:10.490Z,9.23
2023-11-23T07:50:40.336Z,8.95
2023-11-23T07:53:07.630Z,7.88
2023-11-23T07:55:34.018Z,9.10
2023-11-23T07:58:00.902Z,8.45
2023-11-23T08:00:27.603Z,9.27
2023-11-23T08:02:55.818Z,8.60
2023-11-23T08:05:22.574Z,9.30
2023-11-23T08:07:51.279Z,8.30
2023-11-23T08:10:17.885Z,7.45
2023-11-23T08:12:44.901Z,7.72
2023-11-23T08:15:11.444Z,7.70
2023-11-23T08:17:38.243Z,8.43
2023-11-23T08:20:08.670Z,8.88
2023-11-23T08:22:40.055Z,8.50
2023-11-23T08:27:33.521Z,8.07
2023-11-23T08:30:01.106Z,9.10
2023-11-23T08:32:27.636Z,9.35
2023-11-23T08:34:54.548Z,7.68
2023-11-23T08:37:20.986Z,10.50
2023-11-23T08:39:47.729Z,6.82
2023-11-23T08:42:15.306Z,8.68
2023-11-23T08:44:41.843Z,7.78
2023-11-23T08:47:08.340Z,8.65
2023-11-23T08:49:34.813Z,8.90
2023-11-23T08:52:01.264Z,7.75
2023-11-23T08:54:27.764Z,8.20
2023-11-23T08:56:54.452Z,8.23
2023-11-23T08:59:21.144Z,8.20
2023-11-23T09:01:54.601Z,8.23
2023-11-23T09:04:33.099Z,8.82
2023-11-23T09:07:00.108Z,9.23
2023-11-23T09:09:26.558Z,8.70
2023-11-23T09:11:53.013Z,8.20
2023-11-23T09:14:19.550Z,7.78
2023-11-23T09:16:45.942Z,8.55
2023-11-23T09:19:13.188Z,8.05
2023-11-23T09:21:39.817Z,9.05
2023-11-23T09:24:06.695Z,8.45
2023-11-23T09:26:33.457Z,8.50
2023-11-23T09:29:00.056Z,8.63
2023-11-23T09:31:31.132Z,8.98
2023-11-23T09:33:57.733Z,8.95
2023-11-23T09:36:24.651Z,7.80
2023-11-23T09:38:51.123Z,9.60
2023-11-23T09:41:20.599Z,9.27
2023-11-23T09:43:51.082Z,9.57
2023-11-23T09:46:17.797Z,8.63
2023-11-23T09:48:45.080Z,9.63
2023-11-23T09:51:11.696Z,8.88
2023-11-23T09:53:38.713Z,8.63
2023-11-23T09:56:05.310Z,8.93
2023-11-23T09:58:31.757Z,8.32
2023-11-23T10:01:01.917Z,9.23
2023-11-23T10:03:32.310Z,7.60
2023-11-23T10:05:58.830Z,8.65
2023-11-23T10:08:26.713Z,8.93
2023-11-23T10:10:53.170Z,7.97
2023-11-23T10:13:20.561Z,9.07
2023-11-23T10:15:48.493Z,9.27
2023-11-23T10:18:15.011Z,8.75
2023-11-23T10:20:48.028Z,9.23
2023-11-23T10:23:14.747Z,8.10
2023-11-23T10:25:42.070Z,9.43
2023-11-23T10:28:08.812Z,9.77
2023-11-23T10:30:38.996Z,8.35
2023-11-23T10:33:06.553Z,8.85
2023-11-23T10:35:37.127Z,8.52
2023-11-23T10:38:03.729Z,9.83
2023-11-23T10:40:30.661Z,10.05
2023-11-23T10:42:58.514Z,8.63
2023-11-23T10:45:25.849Z,9.57
2023-11-23T10:47:54.239Z,8.90
2023-11-23T10:50:21.199Z,10.10
2023-11-23T10:52:48.204Z,9.02
2023-11-23T10:55:14.736Z,9.07
2023-11-23T10:57:53.919Z,9.57
2023-11-23T11:00:24.625Z,9.32
2023-11-23T11:02:52.463Z,9.97
2023-11-23T11:05:28.068Z,7.97
2023-11-23T11:07:57.420Z,9.55
2023-11-23T11:10:23.829Z,9.25
2023-11-23T11:12:51.197Z,9.68
2023-11-23T11:15:19.543Z,10.20
2023-11-23T11:17:48.095Z,10.18
2023-11-23T11:20:20.214Z,9.63
2023-11-23T11:22:56.346Z,8.52
2023-11-23T11:25:23.145Z,10.45
2023-11-23T11:27:51.169Z,8.48
2023-11-23T11:30:25.326Z,10.23
2023-11-23T11:32:53.463Z,10.25
2023-11-23T11:35:21.577Z,9.98
2023-11-23T11:37:48.314Z,10.48
2023-11-23T11:40:16.869Z,8.48
2023-11-23T11:42:43.459Z,8.57
2023-11-23T11:45:10.458Z,8.20
2023-11-23T11:47:39.019Z,9.20
2023-11-23T11:50:05.924Z,8.57
2023-11-23T11:52:37.885Z,9.15
2023-11-23T11:55:06.421Z,9.07
2023-11-23T11:57:39.626Z,9.00
2023-11-23T12:00:08.530Z,8.07
2023-11-23T12:02:35.274Z,9.80
2023-11-23T12:05:01.713Z,7.70
2023-11-23T12:07:28.380Z,7.63
2023-11-23T12:09:56.208Z,8.13
2023-11-23T12:12:22.885Z,7.53
2023-11-23T12:14:49.381Z,7.38
2023-11-23T12:17:15.828Z,7.70
2023-11-23T12:19:56.215Z,6.00
2023-11-23T12:22:24.314Z,6.13
2023-11-23T12:24:51.037Z,4.50
2023-11-23T12:27:17.870Z,5.35
2023-11-23T12:29:44.970Z,4.85
2023-11-23T12:32:11.462Z,4.28
2023-11-23T12:34:38.001Z,3.83
2023-11-23T12:37:05.043Z,5.05
2023-11-23T12:39:31.519Z,4.28
2023-11-23T12:42:00.788Z,4.82
2023-11-23T12:44:27.295Z,3.95
2023-11-23T12:46:53.864Z,4.32
2023-11-23T12:49:21.058Z,4.75
2023-11-23T12:51:47.655Z,4.63
2023-11-23T12:54:15.681Z,4.72
2023-11-23T12:56:42.350Z,4.78
2023-11-23T12:59:08.749Z,4.43
2023-11-23T13:01:39.745Z,5.35
2023-11-23T13:04:08.864Z,4.75
2023-11-23T13:06:36.187Z,5.60
2023-11-23T13:09:03.784Z,4.95
2023-11-23T13:11:30.343Z,5.95
2023-11-23T13:13:56.996Z,5.90
2023-11-23T13:16:24.864Z,4.72
2023-11-23T13:19:06.266Z,5.18
2023-11-23T13:21:39.420Z,4.72
2023-11-23T13:24:07.662Z,4.93
2023-11-23T13:26:34.382Z,5.03
2023-11-23T13:29:00.824Z,5.55
2023-11-23T13:31:28.621Z,4.68
2023-11-23T13:33:55.351Z,5.25
2023-11-23T13:36:21.873Z,4.78
2023-11-23T13:38:50.295Z,5.20
2023-11-23T13:41:16.806Z,5.82
2023-11-23T13:43:43.808Z,6.72
2023-11-23T13:46:10.515Z,6.05
2023-11-23T13:48:37.079Z,5.05
2023-11-23T13:55:21.539Z,6.55
2023-11-23T13:57:48.631Z,5.90
2023-11-23T14:00:21.235Z,6.65
2023-11-23T14:02:50.872Z,6.65
2023-11-23T14:05:17.890Z,6.13
2023-11-23T14:07:44.447Z,6.60
2023-11-23T14:10:12.248Z,6.47
2023-11-23T14:12:38.742Z,6.25
2023-11-23T14:15:05.423Z,7.13
2023-11-23T14:17:32.072Z,7.35
2023-11-23T14:20:02.017Z,6.95
2023-11-23T14:22:34.948Z,7.60
2023-11-23T14:25:01.891Z,6.65
2023-11-23T14:27:30.015Z,6.90
2023-11-23T14:29:56.624Z,6.82
2023-11-23T14:32:26.100Z,7.80
2023-11-23T14:34:52.941Z,7.32
2023-11-23T14:37:19.408Z,7.95
2023-11-23T14:39:45.908Z,7.22
2023-11-23T14:42:13.017Z,6.90
2023-11-23T14:44:40.027Z,7.75
2023-11-23T14:47:07.731Z,9.02
2023-11-23T14:49:35.148Z,8.32
2023-11-23T14:52:01.626Z,8.02
2023-11-23T14:54:35.175Z,8.75
2023-11-23T14:57:05.070Z,8.60
2023-11-23T14:59:31.672Z,9.25
2023-11-23T15:01:58.201Z,8.90
2023-11-23T15:04:24.854Z,10.57
2023-11-23T15:06:51.300Z,9.07
2023-11-23T15:09:19.641Z,9.45
2023-11-23T15:11:48.323Z,9.55
2023-11-23T15:14:15.541Z,9.40
2023-11-23T15:16:41.957Z,8.55
2023-11-23T15:19:10.895Z,9.45
2023-11-23T15:21:37.296Z,8.35
2023-11-23T15:24:03.984Z,9.63
2023-11-23T15:26:30.899Z,9.13
2023-11-23T15:28:59.299Z,8.45
2023-11-23T15:31:26.146Z,8.98
2023-11-23T15:33:52.832Z,9.00
2023-11-23T15:36:19.461Z,8.18
2023-11-23T15:38:46.093Z,7.70
2023-11-23T15:41:12.673Z,8.65
2023-11-23T15:43:39.381Z,7.53
2023-11-23T15:46:06.070Z,7.10
2023-11-23T15:48:32.621Z,6.57
2023-11-23T15:50:59.126Z,7.85
2023-11-23T15:53:26.101Z,7.68
2023-11-23T15:55:52.688Z,8.05
2023-11-23T15:58:19.138Z,7.00
2023-11-23T16:00:45.696Z,7.35
2023-11-23T16:03:13.732Z,7.63
2023-11-23T16:05:40.679Z,7.30
2023-11-23T16:08:07.987Z,6.38
2023-11-23T16:10:34.416Z,7.72
2023-11-23T16:13:00.877Z,7.25
2023-11-23T16:15:27.824Z,6.35
2023-11-23T16:17:55.549Z,6.30
2023-11-23T16:20:22.038Z,6.88
2023-11-23T16:22:50.518Z,6.75
2023-11-23T16:25:17.283Z,7.65
2023-11-23T16:27:43.840Z,7.13
2023-11-23T16:30:13.433Z,5.47
2023-11-23T16:32:40.936Z,6.43
2023-11-23T16:35:07.642Z,5.65
2023-11-23T16:37:35.202Z,6.20
2023-11-23T16:40:01.661Z,6.90
2023-11-23T16:42:28.088Z,6.05
2023-11-23T16:44:54.966Z,6.40
2023-11-23T16:47:22.341Z,6.15
2023-11-23T16:49:48.875Z,7.10
2023-11-23T16:52:15.382Z,6.47
2023-11-23T16:54:42.585Z,6.65
2023-11-23T16:57:09.134Z,6.43
2023-11-23T16:59:35.628Z,7.07
2023-11-23T17:02:02.224Z,7.10
2023-11-23T17:04:28.789Z,6.68
2023-11-23T17:06:55.304Z,7.28
2023-11-23T17:09:22.311Z,6.85
2023-11-23T17:11:53.646Z,7.50
2023-11-23T17:16:47.703Z,6.75
2023-11-23T17:19:14.287Z,7.60
2023-11-23T17:21:41.088Z,7.43
2023-11-23T17:24:07.752Z,6.82
2023-11-23T17:26:34.282Z,8.40
2023-11-23T17:29:00.755Z,7.63
2023-11-23T17:31:27.193Z,8.18
2023-11-23T17:33:53.839Z,7.82
2023-11-23T17:36:20.738Z,7.60
2023-11-23T17:38:47.218Z,8.32
2023-11-23T17:41:17.296Z,7.30
2023-11-23T17:43:47.371Z,7.18
2023-11-23T17:46:14.018Z,8.13
2023-11-23T17:48:41.435Z,7.53
2023-11-23T17:51:08.150Z,8.05
2023-11-23T17:53:34.589Z,8.55
2023-11-23T17:56:03.192Z,7.40
2023-11-23T17:58:29.708Z,8.18
2023-11-23T18:00:56.125Z,8.98
2023-11-23T18:03:22.988Z,7.72
2023-11-23T18:05:49.492Z,7.82
2023-11-23T18:08:15.895Z,7.80
2023-11-23T18:10:42.346Z,7.75
2023-11-23T18:13:10.040Z,8.15
2023-11-23T18:15:37.429Z,8.38
2023-11-23T18:18:09.706Z,7.90
2023-11-23T18:20:41.706Z,8.13
2023-11-23T18:23:08.112Z,8.48
2023-11-23T18:25:34.567Z,9.10
2023-11-23T18:28:01.018Z,9.02
2023-11-23T18:30:27.527Z,9.70
2023-11-23T18:32:54.026Z,8.93
2023-11-23T18:35:20.609Z,8.73
2023-11-23T18:37:47.013Z,9.13
2023-11-23T18:40:17.490Z,8.68
2023-11-23T18:42:45.679Z,8.82
2023-11-23T18:45:13.792Z,7.75
2023-11-23T18:47:40.407Z,7.90
2023-11-23T18:50:07.701Z,9.07
2023-11-23T18:52:34.189Z,9.43
2023-11-23T18:55:00.572Z,8.93
2023-11-23T18:57:27.133Z,9.05
2023-11-23T18:59:53.694Z,7.63
2023-11-23T19:02:21.415Z,7.43
2023-11-23T19:04:47.964Z,7.22
2023-11-23T19:07:14.460Z,7.15
2023-11-23T19:09:40.925Z,6.78
2023-11-23T19:12:07.859Z,5.75
2023-11-23T19:14:34.249Z,6.88
2023-11-23T19:17:04.659Z,6.63
2023-11-23T19:19:31.216Z,6.73
2023-11-23T19:21:57.736Z,7.15
2023-11-23T19:24:24.530Z,5.97
2023-11-23T19:26:51.558Z,6.07
2023-11-23T19:29:18.100Z,5.55
2023-11-23T19:31:51.921Z,5.35
2023-11-23T19:34:18.974Z,4.63
2023-11-23T19:36:45.895Z,4.50
2023-11-23T19:39:14.868Z,3.50
2023-11-23T19:41:42.108Z,4.60
2023-11-23T19:44:09.698Z,3.53
2023-11-23T19:46:39.207Z,1.85
2023-11-23T19:49:11.579Z,1.60
2023-11-23T19:51:38.680Z,1.27
2023-11-23T19:54:06.277Z,0.90
2023-11-23T19:56:32.782Z,1.00
2023-11-23T19:58:59.243Z,0.93
2023-11-23T20:01:26.568Z,0.93
2023-11-23T20:03:53.129Z,1.23
2023-11-23T20:06:19.579Z,0.90
2023-11-23T20:08:46.267Z,0.80
2023-11-23T20:11:13.513Z,0.80
2023-11-23T20:13:40.618Z,0.70
2023-11-23T20:16:09.714Z,1.10
2023-11-23T20:18:39.739Z,0.82
2023-11-23T20:21:06.245Z,1.00
2023-11-23T20:23:32.673Z,1.58
2023-11-23T20:25:59.120Z,0.98
2023-11-23T20:28:25.575Z,0.80
2023-11-23T20:30:52.035Z,0.70
2023-11-23T20:33:20.363Z,0.85
2023-11-23T20:35:47.087Z,1.60
2023-11-23T20:38:13.944Z,1.40
2023-11-23T20:40:40.449Z,1.73
2023-11-23T20:43:07.707Z,2.20
2023-11-23T20:45:35.348Z,2.22
2023-11-23T20:48:01.822Z,1.88
2023-11-23T20:50:28.836Z,2.47
2023-11-23T20:52:55.245Z,3.10
2023-11-23T20:55:21.929Z,2.08
2023-11-23T20:57:48.997Z,2.03
2023-11-23T21:00:16.907Z,2.17
2023-11-23T21:02:43.706Z,2.72
2023-11-23T21:05:11.591Z,3.05
2023-11-23T21:07:39.928Z,3.55
2023-11-23T21:10:08.564Z,3.08
2023-11-23T21:12:35.911Z,2.72
2023-11-23T21:15:03.790Z,2.67
2023-11-23T21:17:30.335Z,2.63
2023-11-23T21:19:56.866Z,2.65
2023-11-23T21:22:23.240Z,2.53
2023-11-23T21:24:49.767Z,2.45
2023-11-23T21:27:16.192Z,2.90
2023-11-23T21:29:43.093Z,2.15
2023-11-23T21:32:09.616Z,2.40
2023-11-23T21:34:36.007Z,3.90
2023-11-23T21:37:02.509Z,2.85
2023-11-23T21:39:29.667Z,2.47
2023-11-23T21:41:56.559Z,3.22
2023-11-23T21:44:23.013Z,2.88
2023-11-23T21:46:49.494Z,2.65
2023-11-23T21:49:15.945Z,4.45
2023-11-23T21:51:42.579Z,4.55
2023-11-23T21:54:10.033Z,2.67
2023-11-23T21:56:36.779Z,3.33
2023-11-23T21:59:03.346Z,4.07
2023-11-23T22:01:31.695Z,3.83
2023-11-23T22:03:58.113Z,3.30
2023-11-23T22:06:24.688Z,4.15
2023-11-23T22:08:51.152Z,3.72
2023-11-23T22:11:17.580Z,4.20
2023-11-23T22:13:44.915Z,4.93
2023-11-23T22:16:11.908Z,6.68
2023-11-23T22:18:38.534Z,3.78
2023-11-23T22:21:05.546Z,2.75
2023-11-23T22:23:32.876Z,2.83
2023-11-23T22:26:00.093Z,4.25
2023-11-23T22:28:26.672Z,4.20
2023-11-23T22:30:53.861Z,3.58
2023-11-23T22:33:21.935Z,5.68
2023-11-23T22:35:48.454Z,4.55
2023-11-23T22:38:15.859Z,4.13
2023-11-23T22:40:43.253Z,4.10
2023-11-23T22:43:10.070Z,5.82
2023-11-23T22:45:36.773Z,2.92
2023-11-23T22:48:03.636Z,3.47
2023-11-23T22:50:30.086Z,4.85
2023-11-23T22:52:56.816Z,3.70
2023-11-23T22:55:23.234Z,3.40
2023-11-23T22:57:49.684Z,4.28
2023-11-23T23:00:16.696Z,4.15
2023-11-23T23:02:43.201Z,3.67
2023-11-23T23:05:10.724Z,3.78
2023-11-23T23:07:39.428Z,3.92
2023-11-23T23:10:07.454Z,3.20
2023-11-23T23:12:35.134Z,5.47
2023-11-23T23:15:01.610Z,3.47
2023-11-23T23:17:28.730Z,2.45
2023-11-23T23:19:55.204Z,3.20
2023-11-23T23:22:26.819Z,3.65
2023-11-23T23:24:55.637Z,2.63
2023-11-23T23:27:22.145Z,3.38
2023-11-23T23:29:48.664Z,3.92
2023-11-23T23:32:15.091Z,3.67
2023-11-23T23:34:41.752Z,4.95
2023-11-23T23:37:08.432Z,3.47
2023-11-23T23:39:34.911Z,4.25
2023-11-23T23:42:01.448Z,3.30
2023-11-23T23:44:27.961Z,3.10
2023-11-23T23:46:56.868Z,5.28
2023-11-23T23:49:23.665Z,4.40
2023-11-23T23:51:51.613Z,3.42
2023-11-23T23:54:19.205Z,3.22
2023-11-23T23:56:45.705Z,3.20
2023-11-23T23:59:12.147Z,2.25
